Samskip Ice — C6SO4 — position and weather

sailwx.info

Track history (hours):
 
Tides and Currents Weather Stations Pressure Air Temp Water Temp Dewpoint Dewpoint Depression Visibility Wind Speed Wind Dir Waves Ship Positions

Samskip Ice

Last reported at 2018-Feb-20 03:02 UTC. Time now 2018-Feb-21 05:45 UTC.
Position N 63°27' W 020°17'.

Length 86 m; draft 5.6 m.

Type: Cargo ship. MMSI: 311411000.

Date/timePositionNaut miles runAvg speedWind from/ knotsBaromVisibWave heightAir tempDewpointWater temp
2018-Feb-20 03:02N 63°27' W 020°17'0 0.0
2018-Feb-20 02:47N 63°27' W 020°17'0 0.0
2018-Feb-20 02:26N 63°27' W 020°17'0 0.0
2018-Feb-20 01:59N 63°27' W 020°17'0 0.0
2018-Feb-20 01:20N 63°27' W 020°17'2 0.1
2018-Feb-19 04:32N 63°28' W 020°20'0 3.6
2018-Feb-19 04:30N 63°28' W 020°20'2 3.4
2018-Feb-19 04:00N 63°30' W 020°21'1 2.6
2018-Feb-19 03:30N 63°31' W 020°21'1 2.2
2018-Feb-19 03:00N 63°30' W 020°21'1 2.4
2018-Feb-19 02:30N 63°29' W 020°21'1 2.0
2018-Feb-19 02:00N 63°28' W 020°22'2 4.0
2018-Feb-19 01:30N 63°26' W 020°21'1 1.3
2018-Feb-19 01:00N 63°26' W 020°22'3 5.7
2018-Feb-19 00:29N 63°29' W 020°20'1 2.7
2018-Feb-18 23:59N 63°28' W 020°21'2 3.6
2018-Feb-18 23:27N 63°26' W 020°24'0 0.9
2018-Feb-18 23:00N 63°27' W 020°24'1 1.2
2018-Feb-18 22:30N 63°27' W 020°23'0 1.0
2018-Feb-18 22:00N 63°28' W 020°23'1 2.9
2018-Feb-18 21:30N 63°26' W 020°22'4 7.3
2018-Feb-18 21:00N 63°23' W 020°22'612.7
2018-Feb-18 20:30N 63°23' W 020°08'713.2
2018-Feb-18 20:00N 63°24' W 019°53'713.7
2018-Feb-18 19:30N 63°22' W 019°39'713.8
2018-Feb-18 19:00N 63°20' W 019°24'713.3
2018-Feb-18 18:30N 63°18' W 019°10'713.7
2018-Feb-18 18:01N 63°18' W 018°54'713.6
2018-Feb-18 17:30N 63°17' W 018°39'713.6
2018-Feb-18 17:00N 63°17' W 018°24'  
2018-Feb-16 07:18N 62°32' E 005°03'310.4
2018-Feb-16 07:00N 62°32' E 005°10'510.2
2018-Feb-16 06:30N 62°32' E 005°21'611.4
2018-Feb-16 06:00N 62°31' E 005°33'611.8
2018-Feb-16 05:30N 62°30' E 005°46'612.4
2018-Feb-16 05:00N 62°27' E 005°58'510.2
2018-Feb-16 04:30N 62°29' E 006°08'5 9.6
2018-Feb-16 04:00N 62°29' E 006°18'0 0.0
2018-Feb-16 03:28N 62°29' E 006°18'0 0.0
2018-Feb-16 02:58N 62°29' E 006°18'0 0.0
2018-Feb-16 02:28N 62°29' E 006°18'0 0.0
2018-Feb-16 01:58N 62°29' E 006°18'0 0.0
2018-Feb-16 01:28N 62°29' E 006°18'0 0.0
2018-Feb-16 00:58N 62°29' E 006°18'0 0.0
2018-Feb-16 00:28N 62°29' E 006°18'0 0.0
2018-Feb-15 23:58N 62°29' E 006°18'0 0.0
2018-Feb-15 23:28N 62°29' E 006°18'0 0.0
2018-Feb-15 22:58N 62°29' E 006°18'0 0.0
2018-Feb-15 22:28N 62°29' E 006°18'0 0.0
2018-Feb-15 21:58N 62°29' E 006°18'0 0.0
2018-Feb-15 21:28N 62°29' E 006°18'0 0.0
2018-Feb-15 20:58N 62°29' E 006°18'0 0.0
2018-Feb-15 20:28N 62°29' E 006°18'0 0.0
2018-Feb-15 19:58N 62°29' E 006°18'0 0.0
2018-Feb-15 19:28N 62°29' E 006°18'0 0.0
2018-Feb-15 18:58N 62°29' E 006°18'0 0.0
2018-Feb-15 18:31N 62°29' E 006°18'0 0.0
2018-Feb-15 18:01N 62°29' E 006°18'0 0.0
2018-Feb-15 17:30N 62°29' E 006°18'0 0.0
2018-Feb-15 17:00N 62°29' E 006°18'0 0.0
2018-Feb-15 16:30N 62°29' E 006°18'0 0.0
2018-Feb-15 16:00N 62°29' E 006°18'0 0.0
2018-Feb-15 15:30N 62°29' E 006°18'0 0.0
2018-Feb-15 15:00N 62°29' E 006°18'0 0.0
2018-Feb-15 14:30N 62°29' E 006°18'0 0.0
2018-Feb-15 14:00N 62°29' E 006°18'0 0.0
2018-Feb-15 13:30N 62°29' E 006°18'0 0.0
2018-Feb-15 13:00N 62°29' E 006°18'0 0.0
2018-Feb-15 12:30N 62°29' E 006°18'0 0.0
2018-Feb-15 12:00N 62°29' E 006°18'0 0.0
2018-Feb-15 11:30N 62°29' E 006°18'0 0.0
2018-Feb-15 11:00N 62°29' E 006°18'0 0.0
2018-Feb-15 10:30N 62°29' E 006°18'0 0.0
2018-Feb-15 10:00N 62°29' E 006°18'0 0.0
2018-Feb-15 09:30N 62°29' E 006°18'0 0.0
2018-Feb-15 09:00N 62°29' E 006°18'0 0.0
2018-Feb-15 08:30N 62°29' E 006°18'0 0.0
2018-Feb-15 08:00N 62°29' E 006°18'0 0.0
2018-Feb-15 07:30N 62°29' E 006°18'0 0.0
2018-Feb-15 07:00N 62°29' E 006°18'0 0.0
2018-Feb-15 06:30N 62°29' E 006°18'0 0.0
2018-Feb-15 06:00N 62°29' E 006°18'0 0.0
2018-Feb-15 05:30N 62°29' E 006°18'0 0.0
2018-Feb-15 05:00N 62°29' E 006°18'0 0.0
2018-Feb-15 04:27N 62°29' E 006°18'0 0.0
2018-Feb-15 04:00N 62°29' E 006°18'0 0.0
2018-Feb-15 03:30N 62°29' E 006°18'0 0.0
2018-Feb-15 03:00N 62°29' E 006°18'0 0.0
2018-Feb-15 02:30N 62°29' E 006°18'0 0.0
2018-Feb-15 01:57N 62°29' E 006°18'0 0.0
2018-Feb-15 01:30N 62°29' E 006°18'0 0.0
2018-Feb-15 01:00N 62°29' E 006°18'0 0.0
2018-Feb-15 00:30N 62°29' E 006°18'0 0.0
2018-Feb-15 00:00N 62°29' E 006°18'0 0.0
2018-Feb-14 23:30N 62°29' E 006°18'0 0.0
2018-Feb-14 23:00N 62°29' E 006°18'0 0.0
2018-Feb-14 22:30N 62°29' E 006°18'0 0.0
2018-Feb-14 22:00N 62°29' E 006°18'0 0.0
2018-Feb-14 21:30N 62°29' E 006°18'0 0.0
2018-Feb-14 21:00N 62°29' E 006°18'0 0.0
2018-Feb-14 20:30N 62°29' E 006°18'0 0.0
2018-Feb-14 20:00N 62°29' E 006°18'0 0.1
2018-Feb-14 19:30N 62°29' E 006°18'0 0.0
2018-Feb-14 18:58N 62°29' E 006°18'0 0.0
2018-Feb-14 18:28N 62°29' E 006°18'0 0.0
2018-Feb-14 17:58N 62°29' E 006°18'0 0.0
2018-Feb-14 17:28N 62°29' E 006°18'0 0.0
2018-Feb-14 16:58N 62°29' E 006°18'0 0.0
2018-Feb-14 16:28N 62°29' E 006°18'0 0.0
2018-Feb-14 15:58N 62°29' E 006°18'0 0.0
2018-Feb-14 15:31N 62°29' E 006°18'0 0.0
2018-Feb-14 15:01N 62°29' E 006°18'0 0.0
2018-Feb-14 14:31N 62°29' E 006°18'0 0.0
2018-Feb-14 14:00N 62°29' E 006°18'0 0.0
2018-Feb-14 13:30N 62°29' E 006°18'0 0.0
2018-Feb-14 13:00N 62°29' E 006°18'0 0.0
2018-Feb-14 12:30N 62°29' E 006°18'0 0.0
2018-Feb-14 12:00N 62°29' E 006°18'0 0.0
2018-Feb-14 11:30N 62°29' E 006°18'0 0.0
2018-Feb-14 11:00N 62°29' E 006°18'0 0.0
2018-Feb-14 10:30N 62°29' E 006°18'0 0.0
2018-Feb-14 10:00N 62°29' E 006°18'0 0.0
2018-Feb-14 09:30N 62°29' E 006°18'0 0.0
2018-Feb-14 09:00N 62°29' E 006°18'0 0.0
2018-Feb-14 08:30N 62°29' E 006°18'0 0.0
2018-Feb-14 08:00N 62°29' E 006°18'0 0.0
2018-Feb-14 07:30N 62°29' E 006°18'0 0.0
2018-Feb-14 06:57N 62°29' E 006°18'0 0.0
2018-Feb-14 06:30N 62°29' E 006°18'0 0.0
2018-Feb-14 06:00N 62°29' E 006°18'0 0.0
2018-Feb-14 05:30N 62°29' E 006°18'0 0.0
2018-Feb-14 05:00N 62°29' E 006°18'0 0.0
2018-Feb-14 04:30N 62°29' E 006°18'0 0.0
2018-Feb-14 04:00N 62°29' E 006°18'0 0.0
2018-Feb-14 03:30N 62°29' E 006°18'0 0.0
2018-Feb-14 02:57N 62°29' E 006°18'0 0.0
2018-Feb-14 02:30N 62°29' E 006°18'0 0.0
2018-Feb-14 02:00N 62°29' E 006°18'0 0.0
2018-Feb-14 01:30N 62°29' E 006°18'0 0.0
2018-Feb-14 01:00N 62°29' E 006°18'0 0.0
2018-Feb-14 00:30N 62°29' E 006°18'0 0.0
2018-Feb-14 00:00N 62°29' E 006°18'0 0.0
2018-Feb-13 23:30N 62°29' E 006°18'0 0.0
2018-Feb-13 23:00N 62°29' E 006°18'0 0.0
2018-Feb-13 22:30N 62°29' E 006°18'0 0.0
2018-Feb-13 22:00N 62°29' E 006°18'0 0.0
2018-Feb-13 21:30N 62°29' E 006°18'0 0.0
2018-Feb-13 21:00N 62°29' E 006°18'0 0.0
2018-Feb-13 20:30N 62°29' E 006°18'0 0.0
2018-Feb-13 20:00N 62°29' E 006°18'0 0.0
2018-Feb-13 19:30N 62°29' E 006°18'0 0.0
2018-Feb-13 19:00N 62°29' E 006°18'0 0.0
2018-Feb-13 18:30N 62°29' E 006°18'0 0.0
2018-Feb-13 18:00N 62°29' E 006°18'0 0.0
2018-Feb-13 17:30N 62°29' E 006°18'0 0.0
2018-Feb-13 17:00N 62°29' E 006°18'0 0.0
2018-Feb-13 16:30N 62°29' E 006°18'0 0.0
2018-Feb-13 16:00N 62°29' E 006°18'0 0.0
2018-Feb-13 15:30N 62°29' E 006°18'0 0.0
2018-Feb-13 15:00N 62°29' E 006°18'0 0.0
2018-Feb-13 14:27N 62°29' E 006°18'0 0.1
2018-Feb-13 14:00N 62°29' E 006°18'3 5.9
2018-Feb-13 13:30N 62°29' E 006°12'0 0.1
2018-Feb-13 12:59N 62°29' E 006°12'0 0.0
2018-Feb-13 12:29N 62°29' E 006°12'0 0.0
2018-Feb-13 11:59N 62°29' E 006°12'0 0.0
2018-Feb-13 11:29N 62°29' E 006°12'0 0.0
2018-Feb-13 10:59N 62°29' E 006°12'0 0.0
2018-Feb-13 10:29N 62°29' E 006°12'0 0.0
2018-Feb-13 09:59N 62°29' E 006°12'0 0.0
2018-Feb-13 09:29N 62°29' E 006°12'0 0.0
2018-Feb-13 08:59N 62°29' E 006°12'0 0.0
2018-Feb-13 08:29N 62°29' E 006°12'0 0.0
2018-Feb-13 07:59N 62°29' E 006°12'0 0.0
2018-Feb-13 07:29N 62°29' E 006°12'0 0.0
2018-Feb-13 06:59N 62°29' E 006°12'0 0.0
2018-Feb-13 06:29N 62°29' E 006°12'0 0.0
2018-Feb-13 05:59N 62°29' E 006°12'0 0.0
2018-Feb-13 05:29N 62°29' E 006°12'0 0.0
2018-Feb-13 04:59N 62°29' E 006°12'0 0.0
2018-Feb-13 04:29N 62°29' E 006°12'0 0.0
2018-Feb-13 03:59N 62°29' E 006°12'0 0.0
2018-Feb-13 03:29N 62°29' E 006°12'0 0.0
2018-Feb-13 02:59N 62°29' E 006°12'0 0.0
2018-Feb-13 02:29N 62°29' E 006°12'0 0.0
2018-Feb-13 01:59N 62°29' E 006°12'0 0.0
2018-Feb-13 01:29N 62°29' E 006°12'0 0.0
2018-Feb-13 00:59N 62°29' E 006°12'0 0.0
2018-Feb-13 00:29N 62°29' E 006°12'0 0.0
2018-Feb-12 23:59N 62°29' E 006°12'0 0.0
2018-Feb-12 23:29N 62°29' E 006°12'0 0.0
2018-Feb-12 22:59N 62°29' E 006°12'0 0.0
2018-Feb-12 22:29N 62°29' E 006°12'0 0.0
2018-Feb-12 21:59N 62°29' E 006°12'0 0.0
2018-Feb-12 21:29N 62°29' E 006°12'0 0.0
2018-Feb-12 20:59N 62°29' E 006°12'0 0.0
2018-Feb-12 20:29N 62°29' E 006°12'0 0.0
2018-Feb-12 19:58N 62°29' E 006°12'0 0.0
2018-Feb-12 19:28N 62°29' E 006°12'0 0.0
2018-Feb-12 18:58N 62°29' E 006°12'0 0.0
2018-Feb-12 18:28N 62°29' E 006°12'0 0.0
2018-Feb-12 17:58N 62°29' E 006°12'0 0.0
2018-Feb-12 17:28N 62°29' E 006°12'0 0.0
2018-Feb-12 16:58N 62°29' E 006°12'0 0.0
2018-Feb-12 16:28N 62°29' E 006°12'0 0.0
2018-Feb-12 15:58N 62°29' E 006°12'0 0.0
2018-Feb-12 15:28N 62°29' E 006°12'0 0.0
2018-Feb-12 15:00N 62°29' E 006°12'0 0.1
2018-Feb-12 14:29N 62°29' E 006°12'0 0.0
2018-Feb-12 13:59N 62°29' E 006°12'0 0.0
2018-Feb-12 13:29N 62°29' E 006°12'0 0.0
2018-Feb-12 12:59N 62°29' E 006°12'0 0.0
2018-Feb-12 12:29N 62°29' E 006°12'0 0.0
2018-Feb-12 11:59N 62°29' E 006°12'0 0.0
2018-Feb-12 11:29N 62°29' E 006°12'0 0.0
2018-Feb-12 10:59N 62°29' E 006°12'0 0.0
2018-Feb-12 10:29N 62°29' E 006°12'0 0.0
2018-Feb-12 09:59N 62°29' E 006°12'0 0.0
2018-Feb-12 09:28N 62°29' E 006°12'2 3.4
2018-Feb-12 09:00N 62°29' E 006°15'3 5.8
2018-Feb-12 08:30N 62°28' E 006°21'0 0.0
2018-Feb-12 07:59N 62°28' E 006°21'0 0.0
2018-Feb-12 07:29N 62°28' E 006°21'0 0.0
2018-Feb-12 06:59N 62°28' E 006°21'0 0.2
2018-Feb-12 06:30N 62°29' E 006°21'3 6.2
2018-Feb-12 06:00N 62°29' E 006°15'1 2.6
2018-Feb-12 05:30N 62°29' E 006°12'0 0.0
2018-Feb-12 04:57N 62°29' E 006°12'0 0.0
2018-Feb-12 04:30N 62°29' E 006°12'0 0.0
2018-Feb-12 04:00N 62°29' E 006°12'0 0.0
2018-Feb-12 03:30N 62°29' E 006°12'0 0.0
2018-Feb-12 03:00N 62°29' E 006°12'0 0.0
2018-Feb-12 02:30N 62°29' E 006°12'0 0.0
2018-Feb-12 02:00N 62°29' E 006°12'0 0.0
2018-Feb-12 01:30N 62°29' E 006°12'0 0.0
2018-Feb-12 01:00N 62°29' E 006°12'0 0.0
2018-Feb-12 00:29N 62°29' E 006°12'0 0.0
2018-Feb-11 23:59N 62°29' E 006°12'0 0.0
2018-Feb-11 23:29N 62°29' E 006°12'0 0.0
2018-Feb-11 22:59N 62°29' E 006°12'0 0.0
2018-Feb-11 22:29N 62°29' E 006°12'0 0.0
2018-Feb-11 21:59N 62°29' E 006°12'0 0.0
2018-Feb-11 21:29N 62°29' E 006°12'0 0.0
2018-Feb-11 20:59N 62°29' E 006°12'0 0.0
2018-Feb-11 20:29N 62°29' E 006°12'0 0.0
2018-Feb-11 19:59N 62°29' E 006°12'0 0.0
2018-Feb-11 19:29N 62°29' E 006°12'0 0.0
2018-Feb-11 18:59N 62°29' E 006°12'0 0.0
2018-Feb-11 18:29N 62°29' E 006°12'0 0.0
2018-Feb-11 17:59N 62°29' E 006°12'0 0.0
2018-Feb-11 17:29N 62°29' E 006°12'0 0.0
2018-Feb-11 16:59N 62°29' E 006°12'0 0.0
2018-Feb-11 16:29N 62°29' E 006°12'0 0.0
2018-Feb-11 15:59N 62°29' E 006°12'0 0.0
2018-Feb-11 15:29N 62°29' E 006°12'0 0.0
2018-Feb-11 14:59N 62°29' E 006°12'0 0.0
2018-Feb-11 14:29N 62°29' E 006°12'0 0.0
2018-Feb-11 13:59N 62°29' E 006°12'0 0.0
2018-Feb-11 13:29N 62°29' E 006°12'0 0.0
2018-Feb-11 12:59N 62°29' E 006°12'0 0.0
2018-Feb-11 12:29N 62°29' E 006°12'0 0.0
2018-Feb-11 11:59N 62°29' E 006°12'0 0.0
2018-Feb-11 11:29N 62°29' E 006°12'0 0.0
2018-Feb-11 10:59N 62°29' E 006°12'0 0.0
2018-Feb-11 10:29N 62°29' E 006°12'0 0.0
2018-Feb-11 09:59N 62°29' E 006°12'0 0.0
2018-Feb-11 09:29N 62°29' E 006°12'0 0.0
2018-Feb-11 08:59N 62°29' E 006°12'0 0.0
2018-Feb-11 08:29N 62°29' E 006°12'0 0.0
2018-Feb-11 07:59N 62°29' E 006°12'0 0.0
2018-Feb-11 07:29N 62°29' E 006°12'0 0.0
2018-Feb-11 06:59N 62°29' E 006°12'0 0.0
2018-Feb-11 06:29N 62°29' E 006°12'0 0.0
2018-Feb-11 05:59N 62°29' E 006°12'0 0.0
2018-Feb-11 05:29N 62°29' E 006°12'0 0.0
2018-Feb-11 04:59N 62°29' E 006°12'0 0.0
2018-Feb-11 04:29N 62°29' E 006°12'0 0.0
2018-Feb-11 03:59N 62°29' E 006°12'0 0.0
2018-Feb-11 03:29N 62°29' E 006°12'0 0.0
2018-Feb-11 02:59N 62°29' E 006°12'0 0.0
2018-Feb-11 02:29N 62°29' E 006°12'0 0.0
2018-Feb-11 01:59N 62°29' E 006°12'0 0.0
2018-Feb-11 01:29N 62°29' E 006°12'0 0.0
2018-Feb-11 00:59N 62°29' E 006°12'0 0.0
2018-Feb-11 00:29N 62°29' E 006°12'0 0.0
2018-Feb-10 23:59N 62°29' E 006°12'0 0.0
2018-Feb-10 23:29N 62°29' E 006°12'0 0.0
2018-Feb-10 22:59N 62°29' E 006°12'0 0.0
2018-Feb-10 22:29N 62°29' E 006°12'0 0.0
2018-Feb-10 21:59N 62°29' E 006°12'0 0.0
2018-Feb-10 21:29N 62°29' E 006°12'0 0.0
2018-Feb-10 20:59N 62°29' E 006°12'0 0.0
2018-Feb-10 20:29N 62°29' E 006°12'0 0.0
2018-Feb-10 19:59N 62°29' E 006°12'0 0.0
2018-Feb-10 19:29N 62°29' E 006°12'0 0.0
2018-Feb-10 18:59N 62°29' E 006°12'0 0.0
2018-Feb-10 18:29N 62°29' E 006°12'0 0.0
2018-Feb-10 17:59N 62°29' E 006°12'0 0.0
2018-Feb-10 17:29N 62°29' E 006°12'0 0.0
2018-Feb-10 16:59N 62°29' E 006°12'0 0.0
2018-Feb-10 16:29N 62°29' E 006°12'0 0.0
2018-Feb-10 15:59N 62°29' E 006°12'0 0.0
2018-Feb-10 15:29N 62°29' E 006°12'0 0.0
2018-Feb-10 14:59N 62°29' E 006°12'0 0.0
2018-Feb-10 14:28N 62°29' E 006°12'0 0.0
2018-Feb-10 13:58N 62°29' E 006°12'0 0.0
2018-Feb-10 13:28N 62°29' E 006°12'0 0.0
2018-Feb-10 12:58N 62°29' E 006°12'0 0.0
2018-Feb-10 12:28N 62°29' E 006°12'0 0.0
2018-Feb-10 11:58N 62°29' E 006°12'0 0.0
2018-Feb-10 11:28N 62°29' E 006°12'0 0.1
2018-Feb-10 10:58N 62°29' E 006°12'0 0.0
2018-Feb-10 10:28N 62°29' E 006°12'0 0.0
2018-Feb-10 09:58N 62°29' E 006°12'0 0.0
2018-Feb-10 09:28N 62°29' E 006°12'0 0.0
2018-Feb-10 08:58N 62°29' E 006°12'0 0.0
2018-Feb-10 08:28N 62°29' E 006°12'0 0.0
2018-Feb-10 07:58N 62°29' E 006°12'0 0.0
2018-Feb-10 07:28N 62°29' E 006°12'0 0.0
2018-Feb-10 06:58N 62°29' E 006°12'0 0.0
2018-Feb-10 06:28N 62°29' E 006°12'0 0.0
2018-Feb-10 05:58N 62°29' E 006°12'0 0.0
2018-Feb-10 05:28N 62°29' E 006°12'0 0.0
2018-Feb-10 04:58N 62°29' E 006°12'0 0.0
2018-Feb-10 04:28N 62°29' E 006°12'0 0.0
2018-Feb-10 03:58N 62°29' E 006°12'0 0.0
2018-Feb-10 03:28N 62°29' E 006°12'  
Track history (hours):
 
Tides and Currents Weather Stations Pressure Air Temp Water Temp Dewpoint Dewpoint Depression Visibility Wind Speed Wind Dir Waves Ship Positions

Samskip Ice

Last reported at 2018-Feb-20 03:02 UTC. Time now 2018-Feb-21 05:45 UTC.
Position N 63°27' W 020°17'.

Length 86 m; draft 5.6 m.

Type: Cargo ship. MMSI: 311411000.

Date/timePositionNaut miles runAvg speedWind from/ knotsBaromVisibWave heightAir tempDewpointWater temp
2018-Feb-20 03:02N 63°27' W 020°17'0 0.0
2018-Feb-20 02:47N 63°27' W 020°17'0 0.0
2018-Feb-20 02:26N 63°27' W 020°17'0 0.0
2018-Feb-20 01:59N 63°27' W 020°17'0 0.0
2018-Feb-20 01:20N 63°27' W 020°17'2 0.1
2018-Feb-19 04:32N 63°28' W 020°20'0 3.6
2018-Feb-19 04:30N 63°28' W 020°20'2 3.4
2018-Feb-19 04:00N 63°30' W 020°21'1 2.6
2018-Feb-19 03:30N 63°31' W 020°21'1 2.2
2018-Feb-19 03:00N 63°30' W 020°21'1 2.4
2018-Feb-19 02:30N 63°29' W 020°21'1 2.0
2018-Feb-19 02:00N 63°28' W 020°22'2 4.0
2018-Feb-19 01:30N 63°26' W 020°21'1 1.3
2018-Feb-19 01:00N 63°26' W 020°22'3 5.7
2018-Feb-19 00:29N 63°29' W 020°20'1 2.7
2018-Feb-18 23:59N 63°28' W 020°21'2 3.6
2018-Feb-18 23:27N 63°26' W 020°24'0 0.9
2018-Feb-18 23:00N 63°27' W 020°24'1 1.2
2018-Feb-18 22:30N 63°27' W 020°23'0 1.0
2018-Feb-18 22:00N 63°28' W 020°23'1 2.9
2018-Feb-18 21:30N 63°26' W 020°22'4 7.3
2018-Feb-18 21:00N 63°23' W 020°22'612.7
2018-Feb-18 20:30N 63°23' W 020°08'713.2
2018-Feb-18 20:00N 63°24' W 019°53'713.7
2018-Feb-18 19:30N 63°22' W 019°39'713.8
2018-Feb-18 19:00N 63°20' W 019°24'713.3
2018-Feb-18 18:30N 63°18' W 019°10'713.7
2018-Feb-18 18:01N 63°18' W 018°54'713.6
2018-Feb-18 17:30N 63°17' W 018°39'713.6
2018-Feb-18 17:00N 63°17' W 018°24'  
2018-Feb-16 07:18N 62°32' E 005°03'310.4
2018-Feb-16 07:00N 62°32' E 005°10'510.2
2018-Feb-16 06:30N 62°32' E 005°21'611.4
2018-Feb-16 06:00N 62°31' E 005°33'611.8
2018-Feb-16 05:30N 62°30' E 005°46'612.4
2018-Feb-16 05:00N 62°27' E 005°58'510.2
2018-Feb-16 04:30N 62°29' E 006°08'5 9.6
2018-Feb-16 04:00N 62°29' E 006°18'0 0.0
2018-Feb-16 03:28N 62°29' E 006°18'0 0.0
2018-Feb-16 02:58N 62°29' E 006°18'0 0.0
2018-Feb-16 02:28N 62°29' E 006°18'0 0.0
2018-Feb-16 01:58N 62°29' E 006°18'0 0.0
2018-Feb-16 01:28N 62°29' E 006°18'0 0.0
2018-Feb-16 00:58N 62°29' E 006°18'0 0.0
2018-Feb-16 00:28N 62°29' E 006°18'0 0.0
2018-Feb-15 23:58N 62°29' E 006°18'0 0.0
2018-Feb-15 23:28N 62°29' E 006°18'0 0.0
2018-Feb-15 22:58N 62°29' E 006°18'0 0.0
2018-Feb-15 22:28N 62°29' E 006°18'0 0.0
2018-Feb-15 21:58N 62°29' E 006°18'0 0.0
2018-Feb-15 21:28N 62°29' E 006°18'0 0.0
2018-Feb-15 20:58N 62°29' E 006°18'0 0.0
2018-Feb-15 20:28N 62°29' E 006°18'0 0.0
2018-Feb-15 19:58N 62°29' E 006°18'0 0.0
2018-Feb-15 19:28N 62°29' E 006°18'0 0.0
2018-Feb-15 18:58N 62°29' E 006°18'0 0.0
2018-Feb-15 18:31N 62°29' E 006°18'0 0.0
2018-Feb-15 18:01N 62°29' E 006°18'0 0.0
2018-Feb-15 17:30N 62°29' E 006°18'0 0.0
2018-Feb-15 17:00N 62°29' E 006°18'0 0.0
2018-Feb-15 16:30N 62°29' E 006°18'0 0.0
2018-Feb-15 16:00N 62°29' E 006°18'0 0.0
2018-Feb-15 15:30N 62°29' E 006°18'0 0.0
2018-Feb-15 15:00N 62°29' E 006°18'0 0.0
2018-Feb-15 14:30N 62°29' E 006°18'0 0.0
2018-Feb-15 14:00N 62°29' E 006°18'0 0.0
2018-Feb-15 13:30N 62°29' E 006°18'0 0.0
2018-Feb-15 13:00N 62°29' E 006°18'0 0.0
2018-Feb-15 12:30N 62°29' E 006°18'0 0.0
2018-Feb-15 12:00N 62°29' E 006°18'0 0.0
2018-Feb-15 11:30N 62°29' E 006°18'0 0.0
2018-Feb-15 11:00N 62°29' E 006°18'0 0.0
2018-Feb-15 10:30N 62°29' E 006°18'0 0.0
2018-Feb-15 10:00N 62°29' E 006°18'0 0.0
2018-Feb-15 09:30N 62°29' E 006°18'0 0.0
2018-Feb-15 09:00N 62°29' E 006°18'0 0.0
2018-Feb-15 08:30N 62°29' E 006°18'0 0.0
2018-Feb-15 08:00N 62°29' E 006°18'0 0.0
2018-Feb-15 07:30N 62°29' E 006°18'0 0.0
2018-Feb-15 07:00N 62°29' E 006°18'0 0.0
2018-Feb-15 06:30N 62°29' E 006°18'0 0.0
2018-Feb-15 06:00N 62°29' E 006°18'0 0.0
2018-Feb-15 05:30N 62°29' E 006°18'0 0.0
2018-Feb-15 05:00N 62°29' E 006°18'0 0.0
2018-Feb-15 04:27N 62°29' E 006°18'0 0.0
2018-Feb-15 04:00N 62°29' E 006°18'0 0.0
2018-Feb-15 03:30N 62°29' E 006°18'0 0.0
2018-Feb-15 03:00N 62°29' E 006°18'0 0.0
2018-Feb-15 02:30N 62°29' E 006°18'0 0.0
2018-Feb-15 01:57N 62°29' E 006°18'0 0.0
2018-Feb-15 01:30N 62°29' E 006°18'0 0.0
2018-Feb-15 01:00N 62°29' E 006°18'0 0.0
2018-Feb-15 00:30N 62°29' E 006°18'0 0.0
2018-Feb-15 00:00N 62°29' E 006°18'0 0.0
2018-Feb-14 23:30N 62°29' E 006°18'0 0.0
2018-Feb-14 23:00N 62°29' E 006°18'0 0.0
2018-Feb-14 22:30N 62°29' E 006°18'0 0.0
2018-Feb-14 22:00N 62°29' E 006°18'0 0.0
2018-Feb-14 21:30N 62°29' E 006°18'0 0.0
2018-Feb-14 21:00N 62°29' E 006°18'0 0.0
2018-Feb-14 20:30N 62°29' E 006°18'0 0.0
2018-Feb-14 20:00N 62°29' E 006°18'0 0.1
2018-Feb-14 19:30N 62°29' E 006°18'0 0.0
2018-Feb-14 18:58N 62°29' E 006°18'0 0.0
2018-Feb-14 18:28N 62°29' E 006°18'0 0.0
2018-Feb-14 17:58N 62°29' E 006°18'0 0.0
2018-Feb-14 17:28N 62°29' E 006°18'0 0.0
2018-Feb-14 16:58N 62°29' E 006°18'0 0.0
2018-Feb-14 16:28N 62°29' E 006°18'0 0.0
2018-Feb-14 15:58N 62°29' E 006°18'0 0.0
2018-Feb-14 15:31N 62°29' E 006°18'0 0.0
2018-Feb-14 15:01N 62°29' E 006°18'0 0.0
2018-Feb-14 14:31N 62°29' E 006°18'0 0.0
2018-Feb-14 14:00N 62°29' E 006°18'0 0.0
2018-Feb-14 13:30N 62°29' E 006°18'0 0.0
2018-Feb-14 13:00N 62°29' E 006°18'0 0.0
2018-Feb-14 12:30N 62°29' E 006°18'0 0.0
2018-Feb-14 12:00N 62°29' E 006°18'0 0.0
2018-Feb-14 11:30N 62°29' E 006°18'0 0.0
2018-Feb-14 11:00N 62°29' E 006°18'0 0.0
2018-Feb-14 10:30N 62°29' E 006°18'0 0.0
2018-Feb-14 10:00N 62°29' E 006°18'0 0.0
2018-Feb-14 09:30N 62°29' E 006°18'0 0.0
2018-Feb-14 09:00N 62°29' E 006°18'0 0.0
2018-Feb-14 08:30N 62°29' E 006°18'0 0.0
2018-Feb-14 08:00N 62°29' E 006°18'0 0.0
2018-Feb-14 07:30N 62°29' E 006°18'0 0.0
2018-Feb-14 06:57N 62°29' E 006°18'0 0.0
2018-Feb-14 06:30N 62°29' E 006°18'0 0.0
2018-Feb-14 06:00N 62°29' E 006°18'0 0.0
2018-Feb-14 05:30N 62°29' E 006°18'0 0.0
2018-Feb-14 05:00N 62°29' E 006°18'0 0.0
2018-Feb-14 04:30N 62°29' E 006°18'0 0.0
2018-Feb-14 04:00N 62°29' E 006°18'0 0.0
2018-Feb-14 03:30N 62°29' E 006°18'0 0.0
2018-Feb-14 02:57N 62°29' E 006°18'0 0.0
2018-Feb-14 02:30N 62°29' E 006°18'0 0.0
2018-Feb-14 02:00N 62°29' E 006°18'0 0.0
2018-Feb-14 01:30N 62°29' E 006°18'0 0.0
2018-Feb-14 01:00N 62°29' E 006°18'0 0.0
2018-Feb-14 00:30N 62°29' E 006°18'0 0.0
2018-Feb-14 00:00N 62°29' E 006°18'0 0.0
2018-Feb-13 23:30N 62°29' E 006°18'0 0.0
2018-Feb-13 23:00N 62°29' E 006°18'0 0.0
2018-Feb-13 22:30N 62°29' E 006°18'0 0.0
2018-Feb-13 22:00N 62°29' E 006°18'0 0.0
2018-Feb-13 21:30N 62°29' E 006°18'0 0.0
2018-Feb-13 21:00N 62°29' E 006°18'0 0.0
2018-Feb-13 20:30N 62°29' E 006°18'0 0.0
2018-Feb-13 20:00N 62°29' E 006°18'0 0.0
2018-Feb-13 19:30N 62°29' E 006°18'0 0.0
2018-Feb-13 19:00N 62°29' E 006°18'0 0.0
2018-Feb-13 18:30N 62°29' E 006°18'0 0.0
2018-Feb-13 18:00N 62°29' E 006°18'0 0.0
2018-Feb-13 17:30N 62°29' E 006°18'0 0.0
2018-Feb-13 17:00N 62°29' E 006°18'0 0.0
2018-Feb-13 16:30N 62°29' E 006°18'0 0.0
2018-Feb-13 16:00N 62°29' E 006°18'0 0.0
2018-Feb-13 15:30N 62°29' E 006°18'0 0.0
2018-Feb-13 15:00N 62°29' E 006°18'0 0.0
2018-Feb-13 14:27N 62°29' E 006°18'0 0.1
2018-Feb-13 14:00N 62°29' E 006°18'3 5.9
2018-Feb-13 13:30N 62°29' E 006°12'0 0.1
2018-Feb-13 12:59N 62°29' E 006°12'0 0.0
2018-Feb-13 12:29N 62°29' E 006°12'0 0.0
2018-Feb-13 11:59N 62°29' E 006°12'0 0.0
2018-Feb-13 11:29N 62°29' E 006°12'0 0.0
2018-Feb-13 10:59N 62°29' E 006°12'0 0.0
2018-Feb-13 10:29N 62°29' E 006°12'0 0.0
2018-Feb-13 09:59N 62°29' E 006°12'0 0.0
2018-Feb-13 09:29N 62°29' E 006°12'0 0.0
2018-Feb-13 08:59N 62°29' E 006°12'0 0.0
2018-Feb-13 08:29N 62°29' E 006°12'0 0.0
2018-Feb-13 07:59N 62°29' E 006°12'0 0.0
2018-Feb-13 07:29N 62°29' E 006°12'0 0.0
2018-Feb-13 06:59N 62°29' E 006°12'0 0.0
2018-Feb-13 06:29N 62°29' E 006°12'0 0.0
2018-Feb-13 05:59N 62°29' E 006°12'0 0.0
2018-Feb-13 05:29N 62°29' E 006°12'0 0.0
2018-Feb-13 04:59N 62°29' E 006°12'0 0.0
2018-Feb-13 04:29N 62°29' E 006°12'0 0.0
2018-Feb-13 03:59N 62°29' E 006°12'0 0.0
2018-Feb-13 03:29N 62°29' E 006°12'0 0.0
2018-Feb-13 02:59N 62°29' E 006°12'0 0.0
2018-Feb-13 02:29N 62°29' E 006°12'0 0.0
2018-Feb-13 01:59N 62°29' E 006°12'0 0.0
2018-Feb-13 01:29N 62°29' E 006°12'0 0.0
2018-Feb-13 00:59N 62°29' E 006°12'0 0.0
2018-Feb-13 00:29N 62°29' E 006°12'0 0.0
2018-Feb-12 23:59N 62°29' E 006°12'0 0.0
2018-Feb-12 23:29N 62°29' E 006°12'0 0.0
2018-Feb-12 22:59N 62°29' E 006°12'0 0.0
2018-Feb-12 22:29N 62°29' E 006°12'0 0.0
2018-Feb-12 21:59N 62°29' E 006°12'0 0.0
2018-Feb-12 21:29N 62°29' E 006°12'0 0.0
2018-Feb-12 20:59N 62°29' E 006°12'0 0.0
2018-Feb-12 20:29N 62°29' E 006°12'0 0.0
2018-Feb-12 19:58N 62°29' E 006°12'0 0.0
2018-Feb-12 19:28N 62°29' E 006°12'0 0.0
2018-Feb-12 18:58N 62°29' E 006°12'0 0.0
2018-Feb-12 18:28N 62°29' E 006°12'0 0.0
2018-Feb-12 17:58N 62°29' E 006°12'0 0.0
2018-Feb-12 17:28N 62°29' E 006°12'0 0.0
2018-Feb-12 16:58N 62°29' E 006°12'0 0.0
2018-Feb-12 16:28N 62°29' E 006°12'0 0.0
2018-Feb-12 15:58N 62°29' E 006°12'0 0.0
2018-Feb-12 15:28N 62°29' E 006°12'0 0.0
2018-Feb-12 15:00N 62°29' E 006°12'0 0.1
2018-Feb-12 14:29N 62°29' E 006°12'0 0.0
2018-Feb-12 13:59N 62°29' E 006°12'0 0.0
2018-Feb-12 13:29N 62°29' E 006°12'0 0.0
2018-Feb-12 12:59N 62°29' E 006°12'0 0.0
2018-Feb-12 12:29N 62°29' E 006°12'0 0.0
2018-Feb-12 11:59N 62°29' E 006°12'0 0.0
2018-Feb-12 11:29N 62°29' E 006°12'0 0.0
2018-Feb-12 10:59N 62°29' E 006°12'0 0.0
2018-Feb-12 10:29N 62°29' E 006°12'0 0.0
2018-Feb-12 09:59N 62°29' E 006°12'0 0.0
2018-Feb-12 09:28N 62°29' E 006°12'2 3.4
2018-Feb-12 09:00N 62°29' E 006°15'3 5.8
2018-Feb-12 08:30N 62°28' E 006°21'0 0.0
2018-Feb-12 07:59N 62°28' E 006°21'0 0.0
2018-Feb-12 07:29N 62°28' E 006°21'0 0.0
2018-Feb-12 06:59N 62°28' E 006°21'0 0.2
2018-Feb-12 06:30N 62°29' E 006°21'3 6.2
2018-Feb-12 06:00N 62°29' E 006°15'1 2.6
2018-Feb-12 05:30N 62°29' E 006°12'0 0.0
2018-Feb-12 04:57N 62°29' E 006°12'0 0.0
2018-Feb-12 04:30N 62°29' E 006°12'0 0.0
2018-Feb-12 04:00N 62°29' E 006°12'0 0.0
2018-Feb-12 03:30N 62°29' E 006°12'0 0.0
2018-Feb-12 03:00N 62°29' E 006°12'0 0.0
2018-Feb-12 02:30N 62°29' E 006°12'0 0.0
2018-Feb-12 02:00N 62°29' E 006°12'0 0.0
2018-Feb-12 01:30N 62°29' E 006°12'0 0.0
2018-Feb-12 01:00N 62°29' E 006°12'0 0.0
2018-Feb-12 00:29N 62°29' E 006°12'0 0.0
2018-Feb-11 23:59N 62°29' E 006°12'0 0.0
2018-Feb-11 23:29N 62°29' E 006°12'0 0.0
2018-Feb-11 22:59N 62°29' E 006°12'0 0.0
2018-Feb-11 22:29N 62°29' E 006°12'0 0.0
2018-Feb-11 21:59N 62°29' E 006°12'0 0.0
2018-Feb-11 21:29N 62°29' E 006°12'0 0.0
2018-Feb-11 20:59N 62°29' E 006°12'0 0.0
2018-Feb-11 20:29N 62°29' E 006°12'0 0.0
2018-Feb-11 19:59N 62°29' E 006°12'0 0.0
2018-Feb-11 19:29N 62°29' E 006°12'0 0.0
2018-Feb-11 18:59N 62°29' E 006°12'0 0.0
2018-Feb-11 18:29N 62°29' E 006°12'0 0.0
2018-Feb-11 17:59N 62°29' E 006°12'0 0.0
2018-Feb-11 17:29N 62°29' E 006°12'0 0.0
2018-Feb-11 16:59N 62°29' E 006°12'0 0.0
2018-Feb-11 16:29N 62°29' E 006°12'0 0.0
2018-Feb-11 15:59N 62°29' E 006°12'0 0.0
2018-Feb-11 15:29N 62°29' E 006°12'0 0.0
2018-Feb-11 14:59N 62°29' E 006°12'0 0.0
2018-Feb-11 14:29N 62°29' E 006°12'0 0.0
2018-Feb-11 13:59N 62°29' E 006°12'0 0.0
2018-Feb-11 13:29N 62°29' E 006°12'0 0.0
2018-Feb-11 12:59N 62°29' E 006°12'0 0.0
2018-Feb-11 12:29N 62°29' E 006°12'0 0.0
2018-Feb-11 11:59N 62°29' E 006°12'0 0.0
2018-Feb-11 11:29N 62°29' E 006°12'0 0.0
2018-Feb-11 10:59N 62°29' E 006°12'0 0.0
2018-Feb-11 10:29N 62°29' E 006°12'0 0.0
2018-Feb-11 09:59N 62°29' E 006°12'0 0.0
2018-Feb-11 09:29N 62°29' E 006°12'0 0.0
2018-Feb-11 08:59N 62°29' E 006°12'0 0.0
2018-Feb-11 08:29N 62°29' E 006°12'0 0.0
2018-Feb-11 07:59N 62°29' E 006°12'0 0.0
2018-Feb-11 07:29N 62°29' E 006°12'0 0.0
2018-Feb-11 06:59N 62°29' E 006°12'0 0.0
2018-Feb-11 06:29N 62°29' E 006°12'0 0.0
2018-Feb-11 05:59N 62°29' E 006°12'0 0.0
2018-Feb-11 05:29N 62°29' E 006°12'0 0.0
2018-Feb-11 04:59N 62°29' E 006°12'0 0.0
2018-Feb-11 04:29N 62°29' E 006°12'0 0.0
2018-Feb-11 03:59N 62°29' E 006°12'0 0.0
2018-Feb-11 03:29N 62°29' E 006°12'0 0.0
2018-Feb-11 02:59N 62°29' E 006°12'0 0.0
2018-Feb-11 02:29N 62°29' E 006°12'0 0.0
2018-Feb-11 01:59N 62°29' E 006°12'0 0.0
2018-Feb-11 01:29N 62°29' E 006°12'0 0.0
2018-Feb-11 00:59N 62°29' E 006°12'0 0.0
2018-Feb-11 00:29N 62°29' E 006°12'0 0.0
2018-Feb-10 23:59N 62°29' E 006°12'0 0.0
2018-Feb-10 23:29N 62°29' E 006°12'0 0.0
2018-Feb-10 22:59N 62°29' E 006°12'0 0.0
2018-Feb-10 22:29N 62°29' E 006°12'0 0.0
2018-Feb-10 21:59N 62°29' E 006°12'0 0.0
2018-Feb-10 21:29N 62°29' E 006°12'0 0.0
2018-Feb-10 20:59N 62°29' E 006°12'0 0.0
2018-Feb-10 20:29N 62°29' E 006°12'0 0.0
2018-Feb-10 19:59N 62°29' E 006°12'0 0.0
2018-Feb-10 19:29N 62°29' E 006°12'0 0.0
2018-Feb-10 18:59N 62°29' E 006°12'0 0.0
2018-Feb-10 18:29N 62°29' E 006°12'0 0.0
2018-Feb-10 17:59N 62°29' E 006°12'0 0.0
2018-Feb-10 17:29N 62°29' E 006°12'0 0.0
2018-Feb-10 16:59N 62°29' E 006°12'0 0.0
2018-Feb-10 16:29N 62°29' E 006°12'0 0.0
2018-Feb-10 15:59N 62°29' E 006°12'0 0.0
2018-Feb-10 15:29N 62°29' E 006°12'0 0.0
2018-Feb-10 14:59N 62°29' E 006°12'0 0.0
2018-Feb-10 14:28N 62°29' E 006°12'0 0.0
2018-Feb-10 13:58N 62°29' E 006°12'0 0.0
2018-Feb-10 13:28N 62°29' E 006°12'0 0.0
2018-Feb-10 12:58N 62°29' E 006°12'0 0.0
2018-Feb-10 12:28N 62°29' E 006°12'0 0.0
2018-Feb-10 11:58N 62°29' E 006°12'0 0.0
2018-Feb-10 11:28N 62°29' E 006°12'0 0.1
2018-Feb-10 10:58N 62°29' E 006°12'0 0.0
2018-Feb-10 10:28N 62°29' E 006°12'0 0.0
2018-Feb-10 09:58N 62°29' E 006°12'0 0.0
2018-Feb-10 09:28N 62°29' E 006°12'0 0.0
2018-Feb-10 08:58N 62°29' E 006°12'0 0.0
2018-Feb-10 08:28N 62°29' E 006°12'0 0.0
2018-Feb-10 07:58N 62°29' E 006°12'0 0.0
2018-Feb-10 07:28N 62°29' E 006°12'0 0.0
2018-Feb-10 06:58N 62°29' E 006°12'0 0.0
2018-Feb-10 06:28N 62°29' E 006°12'0 0.0
2018-Feb-10 05:58N 62°29' E 006°12'0 0.0
2018-Feb-10 05:28N 62°29' E 006°12'0 0.0
2018-Feb-10 04:58N 62°29' E 006°12'0 0.0
2018-Feb-10 04:28N 62°29' E 006°12'0 0.0
2018-Feb-10 03:58N 62°29' E 006°12'0 0.0
2018-Feb-10 03:28N 62°29' E 006°12'  

Dump ship's entire track history